Time;durP1;ratioP1;P1;durP2;ratioP2;P2;SDS_P1;SDS_P2;PMS_P1;PMS_P2;Temp;Humidity;BMP_temperature;BMP_pressure;BME280_temperature;BME280_humidity;BME280_pressure;Samples;Min_cycle;Max_cycle;Signal;HPM_P1;HPM_P2
2022/06/05 00:01:01;;;;;;;24.40;22.30;;;14.50;99.90;;;;;;5095627;28;20457;-78
2022/06/05 00:03:38;;;;;;;24.40;22.60;;;14.50;99.90;;;;;;5095072;28;21011;-78
2022/06/05 00:06:14;;;;;;;24.57;22.77;;;14.50;99.90;;;;;;5093883;28;20807;-78
2022/06/05 00:09:02;;;;;;;25.90;23.83;;;14.40;99.90;;;;;;5093236;28;20527;-78
2022/06/05 00:11:43;;;;;;;26.00;23.80;;;14.40;99.90;;;;;;5094899;28;20782;-78
2022/06/05 00:14:14;;;;;;;25.80;23.70;;;14.40;99.90;;;;;;5093495;28;20985;-79
2022/06/05 00:16:42;;;;;;;25.53;23.63;;;14.40;99.90;;;;;;5093660;28;20436;-78
2022/06/05 00:19:10;;;;;;;27.93;25.63;;;14.30;99.90;;;;;;5093668;28;20482;-79
2022/06/05 00:21:39;;;;;;;27.77;25.83;;;14.30;99.90;;;;;;5094669;28;20531;-78
2022/06/05 00:24:07;;;;;;;28.77;26.77;;;14.30;99.90;;;;;;5093257;28;20480;-78
2022/06/05 00:26:45;;;;;;;33.57;31.27;;;14.30;99.90;;;;;;5093283;28;20451;-78
2022/06/05 00:29:28;;;;;;;34.13;32.00;;;14.20;99.90;;;;;;5095160;28;20458;-79
2022/06/05 00:32:10;;;;;;;34.13;31.90;;;14.20;99.90;;;;;;5095189;28;20421;-79
2022/06/05 00:34:39;;;;;;;34.83;32.57;;;14.20;99.90;;;;;;5095186;28;20460;-78
2022/06/05 00:37:20;;;;;;;34.93;32.63;;;14.20;99.90;;;;;;5094508;28;20436;-79
2022/06/05 00:39:57;;;;;;;35.10;33.00;;;14.10;99.90;;;;;;5094718;28;20403;-78
2022/06/05 00:42:27;;;;;;;37.50;35.37;;;14.10;99.90;;;;;;5094832;28;20489;-78
2022/06/05 00:45:00;;;;;;;39.90;37.60;;;14.10;99.90;;;;;;5092974;28;20567;-78
2022/06/05 00:47:32;;;;;;;37.87;35.67;;;14.10;99.90;;;;;;5093403;28;20520;-79
2022/06/05 00:50:07;;;;;;;36.40;34.10;;;14.00;99.90;;;;;;5093417;28;20871;-77
2022/06/05 00:52:40;;;;;;;41.47;38.97;;;14.00;99.90;;;;;;5094897;28;20458;-78
2022/06/05 00:55:10;;;;;;;37.73;35.57;;;14.00;99.90;;;;;;5094895;28;20456;-78
2022/06/05 00:57:39;;;;;;;42.60;40.17;;;13.90;99.90;;;;;;5093447;28;20483;-79
2022/06/05 01:00:14;;;;;;;40.67;38.30;;;13.90;99.90;;;;;;5093630;28;20547;-80
2022/06/05 01:02:45;;;;;;;41.97;39.50;;;13.90;99.90;;;;;;5094491;28;20554;-80
2022/06/05 01:05:16;;;;;;;41.77;39.50;;;13.80;99.90;;;;;;5094574;28;20899;-78
2022/06/05 01:07:44;;;;;;;42.27;39.77;;;13.80;99.90;;;;;;5092965;28;20956;-78
2022/06/05 01:10:13;;;;;;;42.83;40.47;;;13.80;99.90;;;;;;5094490;28;20448;-78
2022/06/05 01:12:53;;;;;;;43.37;40.90;;;13.80;99.90;;;;;;5093245;28;20965;-78
2022/06/05 01:15:29;;;;;;;43.60;41.27;;;13.70;99.90;;;;;;5094628;28;20562;-78
2022/06/05 01:18:03;;;;;;;47.93;45.17;;;13.70;99.90;;;;;;5093596;28;20443;-77
2022/06/05 01:20:41;;;;;;;48.53;45.93;;;13.70;99.90;;;;;;5093171;28;20448;-79
2022/06/05 01:23:31;;;;;;;48.30;45.80;;;13.70;99.90;;;;;;5093989;28;20452;-78
2022/06/05 01:26:08;;;;;;;49.17;46.50;;;13.60;99.90;;;;;;5093050;28;20988;-78
2022/06/05 01:28:42;;;;;;;49.17;46.57;;;13.60;99.90;;;;;;5094501;28;20943;-77
2022/06/05 01:31:18;;;;;;;52.87;50.10;;;13.60;99.90;;;;;;5092800;28;20516;-77
2022/06/05 01:33:52;;;;;;;53.17;50.27;;;13.60;99.90;;;;;;5094376;28;21032;-78
2022/06/05 01:36:28;;;;;;;38.50;36.10;;;13.60;99.90;;;;;;5092947;28;20526;-79
2022/06/05 01:39:00;;;;;;;37.73;35.43;;;13.50;99.90;;;;;;5093116;28;20563;-77
2022/06/05 01:41:40;;;;;;;42.53;39.97;;;13.50;99.90;;;;;;5092836;28;20440;-78
2022/06/05 01:44:15;;;;;;;40.27;37.60;;;13.50;99.90;;;;;;5093079;28;20472;-78
2022/06/05 01:46:43;;;;;;;45.60;42.87;;;13.50;99.90;;;;;;5093881;28;20455;-79
2022/06/05 01:49:16;;;;;;;46.03;43.63;;;13.40;99.90;;;;;;5094812;28;20503;-80
2022/06/05 01:51:55;;;;;;;46.67;43.97;;;13.40;99.90;;;;;;5098867;28;20438;-80
2022/06/05 01:54:31;;;;;;;41.53;39.13;;;13.40;99.90;;;;;;5098205;28;20468;-79
2022/06/05 01:57:05;;;;;;;38.03;35.70;;;13.40;99.90;;;;;;5098450;28;20427;-78
2022/06/05 01:59:38;;;;;;;34.67;32.37;;;13.40;99.90;;;;;;5096436;28;20435;-78
2022/06/05 02:02:11;;;;;;;38.17;35.97;;;13.40;99.90;;;;;;5098192;28;20817;-80
2022/06/05 02:04:43;;;;;;;44.13;41.67;;;13.30;99.90;;;;;;5097390;28;20472;-80
2022/06/05 02:07:16;;;;;;;43.60;41.23;;;13.30;99.90;;;;;;5096525;28;20445;-78
2022/06/05 02:09:50;;;;;;;46.67;44.07;;;13.30;99.90;;;;;;5099277;28;20459;-79
2022/06/05 02:12:20;;;;;;;45.27;42.77;;;13.30;99.90;;;;;;5108357;28;20443;-79
2022/06/05 02:14:49;;;;;;;45.33;42.63;;;13.30;99.90;;;;;;5108339;28;20468;-79
2022/06/05 02:17:17;;;;;;;47.40;44.80;;;13.20;99.90;;;;;;5107744;28;20436;-79
2022/06/05 02:19:46;;;;;;;46.80;44.00;;;13.20;99.90;;;;;;5108932;28;20932;-79
2022/06/05 02:22:19;;;;;;;44.60;42.20;;;13.20;99.90;;;;;;5109657;28;20769;-80
2022/06/05 02:24:48;;;;;;;47.27;44.37;;;13.20;99.90;;;;;;5110460;28;20476;-79
2022/06/05 02:27:23;;;;;;;45.90;43.13;;;13.10;99.90;;;;;;5108132;28;20448;-78
2022/06/05 02:29:53;;;;;;;46.97;44.27;;;13.20;99.90;;;;;;5109624;28;20464;-79
2022/06/05 02:32:34;;;;;;;50.53;47.90;;;13.10;99.90;;;;;;5108397;28;20466;-79
2022/06/05 02:35:12;;;;;;;50.73;48.07;;;13.10;99.90;;;;;;5104485;28;20468;-78
2022/06/05 02:37:49;;;;;;;52.60;49.80;;;13.10;99.90;;;;;;5106961;28;20436;-79
2022/06/05 02:40:26;;;;;;;48.30;45.50;;;13.10;99.90;;;;;;5107946;28;20459;-80
2022/06/05 02:43:01;;;;;;;39.20;36.90;;;13.10;99.90;;;;;;5108695;28;20416;-79
2022/06/05 02:45:36;;;;;;;41.13;38.60;;;13.10;99.90;;;;;;5107929;28;20522;-79
2022/06/05 02:48:12;;;;;;;38.13;35.93;;;13.10;99.90;;;;;;5107667;28;20444;-79
2022/06/05 02:50:44;;;;;;;37.70;35.40;;;13.10;99.90;;;;;;5111157;28;20479;-78
2022/06/05 02:53:14;;;;;;;39.27;36.97;;;13.10;99.90;;;;;;5108867;28;20456;-78
2022/06/05 02:55:43;;;;;;;40.43;38.03;;;13.10;99.90;;;;;;5107399;28;20464;-79
2022/06/05 02:58:14;;;;;;;37.17;34.97;;;13.10;99.90;;;;;;5107178;28;20444;-79
2022/06/05 03:03:27;;;;;;;36.77;34.27;;;13.00;99.90;;;;;;5106895;28;20536;-79
2022/06/05 03:03:31;;;;;;;39.23;37.00;;;13.00;99.90;;;;;;5108081;28;20505;-79
2022/06/05 03:06:03;;;;;;;35.70;33.50;;;13.00;99.90;;;;;;5106671;28;20614;-79
2022/06/05 03:08:31;;;;;;;36.63;34.27;;;13.00;99.90;;;;;;5108599;28;20442;-79
2022/06/05 03:10:59;;;;;;;34.33;32.20;;;13.00;99.90;;;;;;5103995;28;20459;-79
2022/06/05 03:13:29;;;;;;;33.90;31.70;;;13.00;99.90;;;;;;5103474;28;20479;-79
2022/06/05 03:15:57;;;;;;;37.20;34.90;;;13.00;99.90;;;;;;5107262;28;20447;-79
2022/06/05 03:18:25;;;;;;;37.23;35.03;;;13.00;99.90;;;;;;5105481;28;20466;-79
2022/06/05 03:20:57;;;;;;;34.90;32.73;;;13.00;99.90;;;;;;5106026;28;20436;-79
2022/06/05 03:23:26;;;;;;;31.43;29.27;;;13.00;99.90;;;;;;5103010;28;20452;-79
2022/06/05 03:25:54;;;;;;;36.53;34.37;;;13.00;99.90;;;;;;5102580;28;20893;-79
2022/06/05 03:28:23;;;;;;;35.53;33.37;;;13.00;99.90;;;;;;5103462;28;20510;-79
2022/06/05 03:30:53;;;;;;;36.70;34.30;;;12.90;99.90;;;;;;5103161;28;20452;-79
2022/06/05 03:33:21;;;;;;;38.70;36.13;;;13.00;99.90;;;;;;5101878;28;20502;-79
2022/06/05 03:35:49;;;;;;;37.73;35.43;;;13.00;99.90;;;;;;5104982;28;20877;-77
2022/06/05 03:38:18;;;;;;;37.60;35.20;;;13.00;99.90;;;;;;5104412;28;20479;-79
2022/06/05 03:40:47;;;;;;;37.20;34.97;;;13.00;99.90;;;;;;5104381;28;20460;-78
2022/06/05 03:43:16;;;;;;;32.47;30.37;;;13.00;99.90;;;;;;5102777;28;20969;-79
2022/06/05 03:45:45;;;;;;;38.70;36.20;;;13.00;99.90;;;;;;5103131;28;20504;-79
2022/06/05 03:48:15;;;;;;;32.90;30.90;;;12.90;99.90;;;;;;5104595;28;20501;-79
2022/06/05 03:50:44;;;;;;;37.30;35.20;;;13.00;99.90;;;;;;5103052;28;20857;-79
2022/06/05 03:53:13;;;;;;;37.07;34.83;;;13.00;99.90;;;;;;5103287;28;20460;-78
2022/06/05 03:55:41;;;;;;;35.27;33.07;;;12.90;99.90;;;;;;5102989;28;20513;-78
2022/06/05 03:58:09;;;;;;;34.10;31.90;;;13.00;99.90;;;;;;5103208;28;20444;-79
2022/06/05 04:00:38;;;;;;;33.90;31.87;;;13.00;99.90;;;;;;5105108;28;20495;-79
2022/06/05 04:03:06;;;;;;;34.90;32.60;;;12.90;99.90;;;;;;5105286;28;20467;-79
2022/06/05 04:05:36;;;;;;;34.37;32.37;;;12.90;99.90;;;;;;5105239;28;20488;-79
2022/06/05 04:08:05;;;;;;;33.37;31.37;;;12.90;99.90;;;;;;5104349;28;20437;-78
2022/06/05 04:10:33;;;;;;;32.07;30.07;;;12.90;99.90;;;;;;5103561;28;20449;-80
2022/06/05 04:13:01;;;;;;;31.30;29.20;;;13.00;99.90;;;;;;5102587;28;20551;-78
2022/06/05 04:15:29;;;;;;;32.77;30.67;;;13.00;99.90;;;;;;5103325;28;21070;-79
2022/06/05 04:17:58;;;;;;;35.90;33.70;;;13.00;99.90;;;;;;5104375;28;20478;-79
2022/06/05 04:20:26;;;;;;;33.27;31.27;;;13.00;99.90;;;;;;5102851;28;20475;-79
2022/06/05 04:22:55;;;;;;;34.10;32.00;;;13.00;99.90;;;;;;5104447;28;20855;-78
2022/06/05 04:25:27;;;;;;;34.87;32.43;;;13.00;99.90;;;;;;5105580;28;20529;-78
2022/06/05 04:27:56;;;;;;;31.93;30.03;;;13.00;99.90;;;;;;5104539;28;20436;-79
2022/06/05 04:30:25;;;;;;;30.93;29.17;;;13.00;99.90;;;;;;5104632;28;20468;-79
2022/06/05 04:32:53;;;;;;;34.97;32.87;;;13.00;99.90;;;;;;5102782;28;20515;-79
2022/06/05 04:35:22;;;;;;;37.20;35.10;;;13.10;99.90;;;;;;5103469;28;20472;-80
2022/06/05 04:37:50;;;;;;;37.50;35.40;;;13.10;99.90;;;;;;5104220;28;20459;-78
2022/06/05 04:40:19;;;;;;;35.43;33.30;;;13.10;99.90;;;;;;5103718;28;20984;-78
2022/06/05 04:42:48;;;;;;;34.57;32.67;;;13.10;99.90;;;;;;5105197;28;20433;-78
2022/06/05 04:45:16;;;;;;;36.97;34.97;;;13.20;99.90;;;;;;5104409;28;20486;-78
2022/06/05 04:47:46;;;;;;;35.63;33.73;;;13.20;99.90;;;;;;5104081;28;20503;-78
2022/06/05 04:50:14;;;;;;;34.33;32.20;;;13.20;99.90;;;;;;5104347;28;20452;-79
2022/06/05 04:52:42;;;;;;;34.70;32.80;;;13.20;99.90;;;;;;5102817;28;20483;-79
2022/06/05 04:55:10;;;;;;;34.97;32.97;;;13.30;99.90;;;;;;5103626;28;20551;-79
2022/06/05 04:57:40;;;;;;;38.20;36.20;;;13.30;99.90;;;;;;5102852;28;20517;-79
2022/06/05 05:00:09;;;;;;;34.10;31.90;;;13.40;99.90;;;;;;5105216;28;20455;-79
2022/06/05 05:02:38;;;;;;;33.93;32.10;;;13.40;99.90;;;;;;5101916;28;20452;-79
2022/06/05 05:05:07;;;;;;;34.67;32.87;;;13.40;99.90;;;;;;5102530;28;20524;-79
2022/06/05 05:07:36;;;;;;;33.87;31.77;;;13.50;99.90;;;;;;5103611;28;20467;-79
2022/06/05 05:10:05;;;;;;;34.20;32.30;;;13.60;99.90;;;;;;5103407;28;20445;-79
2022/06/05 05:12:33;;;;;;;34.10;32.10;;;13.60;99.90;;;;;;5104674;28;20452;-79
2022/06/05 05:15:03;;;;;;;33.33;31.33;;;13.70;99.90;;;;;;5105537;28;20551;-79
2022/06/05 05:17:31;;;;;;;31.93;30.13;;;13.70;99.90;;;;;;5108377;28;20439;-79
2022/06/05 05:19:59;;;;;;;30.70;28.60;;;13.80;99.90;;;;;;5107017;28;20432;-78
2022/06/05 05:22:27;;;;;;;28.77;26.97;;;13.80;99.90;;;;;;5106882;28;20482;-78
2022/06/05 05:24:56;;;;;;;29.07;27.27;;;13.90;99.90;;;;;;5108454;28;20475;-79
2022/06/05 05:27:24;;;;;;;29.47;27.77;;;14.00;99.90;;;;;;5111399;28;20535;-78
2022/06/05 05:29:52;;;;;;;28.80;27.10;;;14.10;99.90;;;;;;5109811;28;20459;-79
2022/06/05 05:32:22;;;;;;;27.50;25.73;;;14.20;99.90;;;;;;5109850;28;20494;-78
2022/06/05 05:34:50;;;;;;;26.23;24.57;;;14.30;99.90;;;;;;5109510;28;20443;-78
2022/06/05 05:37:18;;;;;;;25.40;23.80;;;14.40;99.90;;;;;;5109078;28;20444;-79
2022/06/05 05:42:32;;;;;;;24.50;22.90;;;14.70;99.90;;;;;;5109465;28;20452;-79
2022/06/05 05:45:01;;;;;;;26.97;25.20;;;14.90;99.90;;;;;;5110237;28;20589;-79
2022/06/05 05:47:32;;;;;;;28.87;27.17;;;15.20;99.90;;;;;;5110926;28;20516;-79
2022/06/05 05:50:04;;;;;;;27.50;25.80;;;15.50;99.90;;;;;;5109119;28;20439;-78
2022/06/05 05:52:33;;;;;;;25.97;24.47;;;15.70;99.90;;;;;;5109679;28;20432;-79
2022/06/05 05:55:01;;;;;;;26.07;24.57;;;16.00;99.90;;;;;;5109678;28;20804;-78
2022/06/05 05:57:39;;;;;;;24.70;23.20;;;16.30;99.90;;;;;;5108800;28;20430;-78
2022/06/05 06:00:12;;;;;;;22.90;21.50;;;16.60;99.90;;;;;;5106417;28;20517;-79
2022/06/05 06:02:42;;;;;;;25.13;23.63;;;16.90;99.90;;;;;;5107056;28;20871;-79
2022/06/05 06:05:14;;;;;;;24.37;22.80;;;17.20;99.90;;;;;;5108844;28;20523;-79
2022/06/05 06:07:42;;;;;;;24.97;23.37;;;17.60;99.90;;;;;;5107446;28;20496;-78
2022/06/05 06:10:12;;;;;;;22.50;21.10;;;17.90;99.90;;;;;;5108268;28;20446;-79
2022/06/05 06:12:41;;;;;;;23.50;22.20;;;18.20;99.90;;;;;;5105265;28;20418;-78
2022/06/05 06:15:10;;;;;;;22.40;20.77;;;18.40;99.90;;;;;;5107213;28;20459;-78
2022/06/05 06:17:40;;;;;;;22.50;21.10;;;18.70;99.90;;;;;;5106914;28;20489;-79
2022/06/05 06:20:12;;;;;;;22.13;20.73;;;18.90;99.90;;;;;;5115111;28;20452;-80
2022/06/05 06:22:41;;;;;;;24.03;22.53;;;19.20;99.90;;;;;;5112663;28;20428;-80
2022/06/05 06:25:11;;;;;;;23.30;21.90;;;19.40;99.90;;;;;;5110656;28;20491;-79
2022/06/05 06:27:40;;;;;;;24.77;23.47;;;19.60;99.90;;;;;;5109289;28;20490;-80
2022/06/05 06:30:12;;;;;;;23.87;22.47;;;19.80;99.90;;;;;;5110192;28;20933;-78
2022/06/05 06:32:42;;;;;;;24.47;23.07;;;20.00;99.90;;;;;;5108161;28;20468;-79
2022/06/05 06:35:10;;;;;;;25.83;24.40;;;20.10;99.90;;;;;;5103077;28;20502;-78
2022/06/05 06:37:39;;;;;;;28.30;26.60;;;20.20;99.90;;;;;;5106912;28;20894;-78
2022/06/05 06:40:09;;;;;;;27.20;25.50;;;20.30;99.90;;;;;;5107702;28;20440;-78
2022/06/05 06:42:37;;;;;;;24.37;23.00;;;20.30;99.90;;;;;;5107732;28;20531;-78
2022/06/05 06:45:06;;;;;;;24.40;22.90;;;20.20;99.90;;;;;;5103851;28;20471;-78
2022/06/05 06:47:35;;;;;;;24.43;22.90;;;20.30;99.90;;;;;;5102019;28;21027;-78
2022/06/05 06:50:06;;;;;;;25.63;24.33;;;20.30;99.90;;;;;;5103167;28;20506;-78
2022/06/05 06:52:36;;;;;;;25.13;23.73;;;20.40;99.90;;;;;;5101894;28;20509;-77
2022/06/05 06:55:07;;;;;;;26.23;24.67;;;20.40;99.90;;;;;;5100107;28;20456;-77
2022/06/05 06:57:35;;;;;;;27.50;25.90;;;20.50;99.90;;;;;;5101236;28;20435;-77
2022/06/05 07:00:04;;;;;;;24.57;23.17;;;20.60;99.90;;;;;;5102007;28;20436;-79
2022/06/05 07:02:32;;;;;;;25.20;23.63;;;20.80;99.90;;;;;;5099471;28;20484;-77
2022/06/05 07:05:00;;;;;;;24.23;22.83;;;20.90;99.90;;;;;;5098504;28;20483;-78
2022/06/05 07:07:30;;;;;;;23.97;22.63;;;21.10;99.90;;;;;;5102069;28;20464;-78
2022/06/05 07:09:58;;;;;;;23.97;22.57;;;21.30;99.90;;;;;;5101790;28;20446;-78
2022/06/05 07:12:26;;;;;;;24.73;23.23;;;21.40;99.70;;;;;;5104627;28;20455;-79
2022/06/05 07:14:55;;;;;;;21.80;20.50;;;21.50;99.50;;;;;;5108900;28;20504;-79
2022/06/05 07:17:23;;;;;;;21.67;20.20;;;21.60;99.20;;;;;;5108794;28;20440;-78
2022/06/05 07:19:51;;;;;;;19.33;18.00;;;21.70;99.00;;;;;;5109382;28;20444;-80
2022/06/05 07:22:19;;;;;;;18.07;16.87;;;21.80;98.70;;;;;;5108195;28;20455;-80
2022/06/05 07:24:49;;;;;;;17.10;15.90;;;21.80;98.60;;;;;;5105901;28;20488;-78
2022/06/05 07:27:18;;;;;;;16.97;15.80;;;22.00;98.40;;;;;;5100118;28;20468;-78
2022/06/05 07:29:46;;;;;;;17.13;16.03;;;22.10;98.30;;;;;;5104125;28;20455;-77
2022/06/05 07:32:15;;;;;;;16.57;15.47;;;22.20;97.90;;;;;;5102915;28;20451;-78
2022/06/05 07:34:43;;;;;;;16.97;15.97;;;22.30;97.90;;;;;;5102891;28;20914;-79
2022/06/05 07:37:13;;;;;;;16.63;15.63;;;22.40;97.90;;;;;;5105440;28;20516;-78
2022/06/05 07:39:42;;;;;;;17.23;16.23;;;22.50;97.80;;;;;;5101473;28;20542;-78
2022/06/05 07:42:12;;;;;;;16.63;15.43;;;22.60;97.60;;;;;;5102159;28;20483;-77
2022/06/05 07:44:41;;;;;;;18.33;17.23;;;22.70;97.40;;;;;;5103098;28;20838;-79
2022/06/05 07:47:10;;;;;;;17.93;16.73;;;22.70;97.40;;;;;;5104614;28;20454;-80
2022/06/05 07:49:39;;;;;;;16.30;15.30;;;22.80;97.20;;;;;;5102016;28;20437;-77
2022/06/05 07:54:54;;;;;;;16.80;15.80;;;22.90;97.00;;;;;;5102277;28;20499;-79
2022/06/05 07:57:23;;;;;;;16.20;15.20;;;23.00;97.20;;;;;;5105551;28;20440;-79
2022/06/05 07:59:51;;;;;;;17.87;16.77;;;23.20;96.90;;;;;;5104388;28;20450;-79
2022/06/05 08:02:23;;;;;;;18.13;16.93;;;23.30;96.80;;;;;;5101658;28;20574;-79
2022/06/05 08:04:53;;;;;;;17.87;16.77;;;23.30;96.60;;;;;;5103171;28;20472;-78
2022/06/05 08:07:23;;;;;;;16.50;15.50;;;23.40;96.40;;;;;;5101878;28;20475;-78
2022/06/05 08:09:52;;;;;;;15.87;14.77;;;23.50;96.40;;;;;;5101859;28;20482;-79
2022/06/05 08:12:24;;;;;;;15.70;14.60;;;23.60;96.20;;;;;;5100803;28;20515;-77
2022/06/05 08:14:54;;;;;;;16.23;15.20;;;23.70;96.10;;;;;;5100663;28;20455;-79
2022/06/05 08:17:24;;;;;;;16.23;15.13;;;23.90;95.90;;;;;;5100193;28;20475;-77
2022/06/05 08:19:53;;;;;;;15.90;14.90;;;24.00;96.00;;;;;;5100268;28;20444;-78
2022/06/05 08:22:23;;;;;;;14.83;13.93;;;24.10;96.10;;;;;;5101678;28;20991;-77
2022/06/05 08:24:53;;;;;;;15.00;13.90;;;24.30;95.90;;;;;;5101674;28;20456;-78
2022/06/05 08:27:26;;;;;;;15.57;14.47;;;24.30;95.50;;;;;;5099273;28;20487;-77
2022/06/05 08:29:56;;;;;;;15.33;14.17;;;24.40;95.30;;;;;;5098567;28;20440;-79
2022/06/05 08:32:26;;;;;;;14.90;13.90;;;24.50;95.20;;;;;;5097720;28;20527;-78
2022/06/05 08:34:55;;;;;;;14.80;13.80;;;24.50;95.10;;;;;;5101925;28;20479;-80
2022/06/05 08:43:28;;;;;;;15.10;14.00;;;24.50;94.60;;;;;;5099193;28;20821;-79
2022/06/05 08:46:03;;;;;;;14.77;13.67;;;24.50;94.20;;;;;;5099727;28;21011;-79
2022/06/05 08:48:36;;;;;;;15.10;13.90;;;24.50;94.20;;;;;;5099483;28;20456;-79
2022/06/05 08:51:21;;;;;;;15.03;13.93;;;24.50;94.20;;;;;;5097220;28;20439;-79
2022/06/05 08:53:54;;;;;;;15.00;14.00;;;24.50;94.20;;;;;;5097490;28;20498;-78
2022/06/05 08:56:33;;;;;;;14.90;13.83;;;24.50;94.30;;;;;;5098138;28;20433;-78
2022/06/05 08:59:08;;;;;;;14.13;13.20;;;24.50;94.00;;;;;;5096488;28;20443;-78
2022/06/05 09:01:45;;;;;;;16.10;15.10;;;24.50;93.90;;;;;;5098248;28;20436;-78
2022/06/05 09:04:30;;;;;;;14.73;13.70;;;24.50;93.80;;;;;;5099621;28;20474;-78
2022/06/05 09:07:03;;;;;;;16.00;14.90;;;24.40;93.60;;;;;;5098257;28;20432;-79
2022/06/05 09:09:43;;;;;;;14.13;13.23;;;24.40;93.50;;;;;;5104608;28;20839;-81
2022/06/05 09:12:22;;;;;;;15.90;14.60;;;24.40;93.40;;;;;;5102286;28;20515;-80
2022/06/05 09:14:57;;;;;;;14.33;13.50;;;24.40;93.50;;;;;;5101403;28;20476;-80
2022/06/05 09:17:27;;;;;;;14.03;13.00;;;24.40;93.30;;;;;;5100690;28;20809;-78
2022/06/05 09:19:58;;;;;;;14.83;13.83;;;24.30;93.10;;;;;;5104522;28;20443;-78
2022/06/05 09:22:33;;;;;;;14.80;13.60;;;24.30;93.00;;;;;;5103782;28;20948;-79
2022/06/05 09:25:40;;;;;;;15.10;14.07;;;24.30;93.00;;;;;;5105941;28;20459;-80
2022/06/05 09:28:22;;;;;;;14.70;13.73;;;24.30;93.10;;;;;;5102428;28;20467;-80
2022/06/05 09:30:55;;;;;;;13.60;12.70;;;24.40;93.20;;;;;;5097307;28;20441;-78
2022/06/05 09:33:27;;;;;;;14.90;13.87;;;24.50;93.20;;;;;;5100211;28;20471;-78
2022/06/05 09:35:59;;;;;;;14.13;13.13;;;24.60;93.10;;;;;;5098664;28;20432;-79
2022/06/05 09:38:30;;;;;;;14.23;13.23;;;24.70;92.80;;;;;;5100386;28;20520;-79
2022/06/05 09:41:16;;;;;;;14.33;13.33;;;24.80;92.50;;;;;;5102543;28;20434;-81
2022/06/05 09:43:58;;;;;;;14.07;13.07;;;24.80;92.30;;;;;;5101277;28;20577;-78
2022/06/05 09:46:52;;;;;;;13.83;12.93;;;24.90;92.30;;;;;;5097633;28;20610;-80
2022/06/05 09:49:26;;;;;;;14.77;13.77;;;24.90;92.30;;;;;;5097152;28;20471;-79
2022/06/05 09:51:56;;;;;;;14.13;13.13;;;25.00;92.40;;;;;;5098084;28;20984;-78
2022/06/05 09:54:28;;;;;;;14.47;13.27;;;25.00;92.50;;;;;;5098380;28;20460;-81
2022/06/05 09:59:56;;;;;;;14.17;12.87;;;25.10;92.10;;;;;;5097242;28;20471;-78
2022/06/05 10:02:34;;;;;;;14.80;13.53;;;25.10;92.00;;;;;;5096759;28;20455;-79
2022/06/05 10:05:13;;;;;;;13.87;12.80;;;25.10;91.90;;;;;;5095761;28;20468;-79
2022/06/05 10:07:52;;;;;;;12.60;11.80;;;25.20;91.80;;;;;;5099497;28;20423;-80
2022/06/05 10:10:26;;;;;;;13.50;12.60;;;25.10;91.60;;;;;;5097493;28;20550;-79
2022/06/05 10:13:02;;;;;;;12.83;11.83;;;25.20;91.60;;;;;;5098848;28;20493;-77
2022/06/05 10:15:39;;;;;;;13.33;12.47;;;25.30;91.40;;;;;;5099968;28;20474;-78
2022/06/05 10:18:17;;;;;;;13.60;12.70;;;25.30;91.40;;;;;;5100321;28;20463;-79
2022/06/05 10:20:56;;;;;;;13.13;12.20;;;25.30;91.40;;;;;;5097925;28;20486;-79
2022/06/05 10:23:47;;;;;;;12.90;11.90;;;25.50;91.40;;;;;;5098421;28;20427;-81
2022/06/05 10:26:20;;;;;;;13.43;12.63;;;25.60;91.30;;;;;;5097321;28;20436;-78
2022/06/05 10:28:51;;;;;;;12.30;11.50;;;25.80;91.40;;;;;;5099387;28;20509;-78
2022/06/05 10:31:30;;;;;;;13.10;12.20;;;25.90;91.20;;;;;;5096819;28;20448;-78
2022/06/05 10:34:12;;;;;;;13.67;12.67;;;25.90;91.30;;;;;;5097361;28;20460;-79
2022/06/05 10:37:05;;;;;;;13.30;12.10;;;26.10;91.30;;;;;;5098662;28;20506;-78
2022/06/05 10:39:41;;;;;;;12.77;11.87;;;26.20;91.10;;;;;;5098749;28;20893;-79
2022/06/05 10:42:31;;;;;;;12.97;12.07;;;26.30;90.90;;;;;;5098415;28;20865;-79
2022/06/05 10:45:30;;;;;;;11.87;11.03;;;26.40;90.80;;;;;;5099158;28;20543;-79
2022/06/05 10:48:12;;;;;;;12.43;11.63;;;26.40;90.60;;;;;;5082414;28;20508;-79
2022/06/05 10:50:51;;;;;;;13.13;12.23;;;26.50;90.60;;;;;;5097390;28;20456;-78
2022/06/05 10:53:24;;;;;;;12.50;11.60;;;26.50;90.70;;;;;;5097352;28;20519;-80
2022/06/05 10:56:03;;;;;;;11.63;10.83;;;26.50;90.40;;;;;;5095466;28;20446;-79
2022/06/05 10:58:37;;;;;;;12.10;11.20;;;26.50;90.00;;;;;;5097021;28;20416;-80
2022/06/05 11:01:25;;;;;;;11.50;10.70;;;26.50;89.50;;;;;;5095774;28;20809;-80
2022/06/05 11:03:58;;;;;;;11.83;11.03;;;26.50;89.20;;;;;;5096845;28;20527;-79
2022/06/05 11:06:36;;;;;;;12.17;11.37;;;26.40;89.30;;;;;;5096721;28;20448;-79
2022/06/05 11:09:16;;;;;;;13.03;12.13;;;26.40;89.40;;;;;;5095523;28;20452;-81
2022/06/05 11:14:46;;;;;;;12.60;11.60;;;26.50;88.70;;;;;;5095412;28;20510;-78
2022/06/05 11:17:29;;;;;;;12.50;11.60;;;26.50;88.80;;;;;;5095348;28;20451;-79
2022/06/05 11:20:07;;;;;;;13.43;12.23;;;26.60;89.20;;;;;;5096713;28;20507;-79
2022/06/05 11:22:40;;;;;;;12.47;11.67;;;26.60;88.70;;;;;;5095254;28;20440;-80
2022/06/05 11:25:21;;;;;;;11.60;10.70;;;26.70;88.80;;;;;;5094830;28;20468;-79
2022/06/05 11:27:58;;;;;;;11.73;10.90;;;26.70;88.30;;;;;;5094888;28;20530;-79
2022/06/05 11:30:35;;;;;;;12.10;11.30;;;26.80;88.00;;;;;;5095326;28;20909;-79
2022/06/05 11:33:13;;;;;;;11.93;10.90;;;26.70;87.50;;;;;;5096722;28;20501;-79
2022/06/05 11:35:58;;;;;;;11.50;10.70;;;26.70;87.30;;;;;;5096689;28;20485;-79
2022/06/05 11:38:38;;;;;;;11.20;10.20;;;26.60;86.80;;;;;;5095097;28;20450;-80
2022/06/05 11:41:18;;;;;;;10.90;10.10;;;26.60;86.60;;;;;;5096451;28;20455;-79
2022/06/05 11:43:51;;;;;;;11.40;10.50;;;26.50;86.70;;;;;;5095128;28;20570;-80
2022/06/05 11:46:40;;;;;;;13.47;12.50;;;26.50;86.60;;;;;;5095219;28;20448;-80
2022/06/05 11:49:15;;;;;;;11.80;10.97;;;26.50;86.80;;;;;;5096251;28;20426;-79
2022/06/05 11:52:01;;;;;;;11.63;10.73;;;26.60;86.70;;;;;;5094996;28;20535;-79
2022/06/05 11:54:39;;;;;;;12.20;11.37;;;26.60;86.20;;;;;;5094560;28;20475;-80
2022/06/05 11:57:14;;;;;;;11.90;11.00;;;26.60;86.50;;;;;;5096050;28;20831;-82
2022/06/05 11:59:48;;;;;;;12.17;11.30;;;26.60;86.60;;;;;;5094816;28;20490;-81
2022/06/05 12:02:39;;;;;;;11.90;11.10;;;26.70;86.90;;;;;;5094223;28;20480;-80
2022/06/05 12:05:18;;;;;;;11.90;11.10;;;26.70;87.10;;;;;;5096016;28;20482;-79
2022/06/05 12:07:49;;;;;;;11.07;10.17;;;26.70;87.10;;;;;;5094856;28;20960;-80
2022/06/05 12:10:24;;;;;;;12.00;11.10;;;26.80;86.60;;;;;;5096371;28;20509;-79
2022/06/05 12:13:06;;;;;;;12.40;11.50;;;26.70;86.00;;;;;;5094811;28;20456;-79
2022/06/05 12:15:50;;;;;;;11.43;10.63;;;26.70;86.10;;;;;;5094351;28;20499;-79
2022/06/05 12:18:23;;;;;;;12.63;11.73;;;26.70;86.40;;;;;;5094426;28;20512;-80
2022/06/05 12:20:56;;;;;;;12.07;11.17;;;26.70;85.90;;;;;;5099053;28;20432;-83
2022/06/05 12:23:29;;;;;;;11.60;10.80;;;26.70;85.80;;;;;;5097120;28;20448;-80
2022/06/05 12:26:01;;;;;;;11.07;10.27;;;26.70;85.60;;;;;;5098528;28;20898;-81
2022/06/05 12:28:35;;;;;;;11.20;10.40;;;26.70;85.50;;;;;;5097745;28;20413;-80
2022/06/05 12:31:16;;;;;;;12.00;11.20;;;26.70;85.30;;;;;;5097836;28;20470;-79
2022/06/05 12:33:49;;;;;;;11.13;10.37;;;26.70;84.70;;;;;;5094375;28;20466;-80
2022/06/05 12:36:27;;;;;;;11.90;11.00;;;26.60;84.70;;;;;;5097002;28;20448;-79
2022/06/05 12:38:59;;;;;;;12.30;11.40;;;26.60;84.70;;;;;;5096666;28;20489;-80
2022/06/05 12:41:43;;;;;;;14.60;13.20;;;26.60;84.90;;;;;;5096086;28;20421;-80
2022/06/05 12:44:22;;;;;;;12.30;11.40;;;26.60;85.20;;;;;;5094806;28;20555;-81
2022/06/05 12:46:57;;;;;;;11.70;10.90;;;26.60;85.30;;;;;;5095212;28;20501;-82
2022/06/05 12:49:35;;;;;;;11.53;10.63;;;26.70;85.60;;;;;;5096259;28;20420;-80
2022/06/05 12:52:21;;;;;;;11.30;10.40;;;26.70;85.80;;;;;;5096371;28;20463;-81
2022/06/05 12:54:54;;;;;;;11.00;10.10;;;26.80;85.70;;;;;;5096086;28;20456;-80
2022/06/05 12:57:49;;;;;;;11.53;10.53;;;26.80;85.30;;;;;;5094992;28;20459;-81
2022/06/05 13:00:23;;;;;;;11.70;10.90;;;26.90;85.20;;;;;;5096626;28;20820;-80
2022/06/05 13:02:57;;;;;;;12.10;11.10;;;26.90;85.20;;;;;;5098536;28;20520;-80
2022/06/05 13:05:32;;;;;;;11.67;10.77;;;26.90;85.40;;;;;;5100822;28;20479;-80
2022/06/05 13:08:06;;;;;;;10.80;9.90;;;26.90;85.40;;;;;;5100084;28;20458;-80
2022/06/05 13:10:39;;;;;;;10.33;9.53;;;26.90;85.10;;;;;;5097101;28;20447;-82
2022/06/05 13:13:20;;;;;;;11.13;10.30;;;26.90;84.80;;;;;;5096818;28;20927;-81
2022/06/05 13:15:52;;;;;;;11.50;10.70;;;26.90;84.90;;;;;;5099214;28;20520;-79